Cap Felix — ONFH — position and weather

sailwx.info

Track history (hours):
 
Tides and Currents Weather Stations Pressure Air Temp Water Temp Dewpoint Dewpoint Depression Visibility Wind Speed Wind Dir Waves Ship Positions

Cap Felix

Last reported at 2014-Aug-12 07:24 UTC. Time now 2014-Oct-24 21:17 UTC.
Position S 34°42' E 027°13'.
Warning: this ship's position is months out of date.

Length 275 m; draft 14.6 m.

Type: Tanker. MMSI: 205517000.

Date/timePositionNaut miles runAvg speedWind from/ knotsBaromVisibWave heightAir tempDewpointWater temp
2014-Aug-12 07:24S 34°42' E 027°13'2812.8
2014-Aug-12 05:11S 34°44' E 026°39'11811.1
2014-Aug-11 18:33S 34°55' E 024°16'7314.1
2014-Aug-11 13:23S 35°01' E 022°47'1213.3
2014-Aug-11 12:29S 35°01' E 022°33'3113.5
2014-Aug-11 10:09S 35°06' E 021°55'16312.9
2014-Aug-10 21:31S 34°59' E 018°36'1512.8
2014-Aug-10 20:22S 34°50' E 018°22'1112.8
2014-Aug-10 19:32S 34°43' E 018°11'1313.4
2014-Aug-10 18:33S 34°35' E 017°59'1413.8
2014-Aug-10 17:33S 34°26' E 017°46'1414.3
2014-Aug-10 16:33S 34°13' E 017°39'5913.3
2014-Aug-10 12:05S 33°20' E 017°08'3313.0
2014-Aug-10 09:31S 32°50' E 016°51'1413.0
2014-Aug-10 08:24S 32°37' E 016°43'1313.3
2014-Aug-10 07:24S 32°25' E 016°37'12713.6
2014-Aug-09 22:06S 30°30' E 015°32'  
Track history (hours):
 
Tides and Currents Weather Stations Pressure Air Temp Water Temp Dewpoint Dewpoint Depression Visibility Wind Speed Wind Dir Waves Ship Positions

Cap Felix

Last reported at 2014-Aug-12 07:24 UTC. Time now 2014-Oct-24 21:17 UTC.
Position S 34°42' E 027°13'.
Warning: this ship's position is months out of date.

Length 275 m; draft 14.6 m.

Type: Tanker. MMSI: 205517000.

Date/timePositionNaut miles runAvg speedWind from/ knotsBaromVisibWave heightAir tempDewpointWater temp
2014-Aug-12 07:24S 34°42' E 027°13'2812.8
2014-Aug-12 05:11S 34°44' E 026°39'11811.1
2014-Aug-11 18:33S 34°55' E 024°16'7314.1
2014-Aug-11 13:23S 35°01' E 022°47'1213.3
2014-Aug-11 12:29S 35°01' E 022°33'3113.5
2014-Aug-11 10:09S 35°06' E 021°55'16312.9
2014-Aug-10 21:31S 34°59' E 018°36'1512.8
2014-Aug-10 20:22S 34°50' E 018°22'1112.8
2014-Aug-10 19:32S 34°43' E 018°11'1313.4
2014-Aug-10 18:33S 34°35' E 017°59'1413.8
2014-Aug-10 17:33S 34°26' E 017°46'1414.3
2014-Aug-10 16:33S 34°13' E 017°39'5913.3
2014-Aug-10 12:05S 33°20' E 017°08'3313.0
2014-Aug-10 09:31S 32°50' E 016°51'1413.0
2014-Aug-10 08:24S 32°37' E 016°43'1313.3
2014-Aug-10 07:24S 32°25' E 016°37'12713.6
2014-Aug-09 22:06S 30°30' E 015°32'  

Dump ship's entire track history